YGLA

Details ICAO YGLA (GLT)
Name Gladstone
Region Australia
Timezone Australia/Brisbane (UTC+10.0)
Plans Departing 332
Arriving 313
Stats Elevation 58 ft / 18 m (AMSL)
Location -23.869600° 151.225000°
Runways 1
Magnetic Variation 9.509° E
Sunrise 2020-10-28 19:11:58 UTC / 2020-10-29 05:11:58 Local
Sunset 2020-10-29 08:08:05 UTC / 2020-10-29 18:08:05 Local
Advertisement - Login to hide

Runways

ID Width Length Bearing (true/mag) Surface Threshold Overrun Markings Lighting
10 148 ft / 45 m 6,305 ft / 1,922 m 110.23° / 100.73° ASPHALT 315 ft / 96 m 0 ft / 0 m PREC-APP CENTERLINE EDGE THRESHOLD REIL-OMNI
28 148 ft / 45 m 6,305 ft / 1,922 m 290.23° / 280.72° ASPHALT 551 ft / 168 m 0 ft / 0 m PREC-APP CENTERLINE EDGE THRESHOLD

Approach Navaids

Runway Type Ident Frequency Range Bearing (true/mag) Slope Elevation
10 LOC-ILS IGL 110.90 MHz 18 nm / 33 km 110.23° / 100.72° - 58 ft / 18 m (AMSL)
10 GS IGL 110.90 MHz 10 nm / 19 km 110.23° / 100.72° 3.00° 58 ft / 18 m (AMSL)

Map

Weather


0- 5 10 15 20 25 30 35+ Temperature / °C

Clouds and Precipitation
Forecast for 2020-10-28 18:00 UTC. Updated 7 hours ago

Ground ~20,000 ft ~40,000 ft Winds

METAR

YGLA 282100Z AUTO 24001KT 9999 // BKN026 BKN032 OVC039 22/18 Q1013

TAF

TAF AMD YGLA 281809Z 2818/2906 31005KT 9999 SCT025 FM290000 29010KT CAVOK

Frequencies

Recorded 126.85 MHz AWOS
Unicom 118.80 MHz CTAF
Warning: Do not use this data for real-world aviation or navigation. No guarantee of current accuracy is given.